createdAt,value
2019-05-14T00:00:32.173Z,84.17
2019-05-14T00:03:35.785Z,84.36
2019-05-14T00:06:41.806Z,84.67
2019-05-14T00:09:45.330Z,85.17
2019-05-14T00:12:51.269Z,85.01
2019-05-14T00:15:54.796Z,84.86
2019-05-14T00:18:58.727Z,85.08
2019-05-14T00:22:02.619Z,85.09
2019-05-14T00:25:08.119Z,85.10
2019-05-14T00:28:12.107Z,85.42
2019-05-14T00:31:16.009Z,85.45
2019-05-14T00:34:21.488Z,85.54
2019-05-14T00:37:25.426Z,85.63
2019-05-14T00:40:31.296Z,85.76
2019-05-14T00:43:34.817Z,85.82
2019-05-14T00:46:40.945Z,85.81
2019-05-14T00:49:44.336Z,85.91
2019-05-14T00:52:48.252Z,85.98
2019-05-14T00:55:52.150Z,86.08
2019-05-14T00:58:55.973Z,86.09
2019-05-14T01:02:02.672Z,86.17
2019-05-14T01:05:06.272Z,86.05
2019-05-14T01:08:12.011Z,85.94
2019-05-14T01:11:15.797Z,85.99
2019-05-14T01:14:21.120Z,86.28
2019-05-14T01:17:25.068Z,86.34
2019-05-14T01:20:29.104Z,86.42
2019-05-14T01:23:32.931Z,86.41
2019-05-14T01:26:36.785Z,86.49
2019-05-14T01:29:42.531Z,86.50
2019-05-14T01:32:46.278Z,86.60
2019-05-14T01:35:51.492Z,86.65
2019-05-14T01:38:55.581Z,86.67
2019-05-14T01:42:01.866Z,86.79
2019-05-14T01:45:05.899Z,86.85
2019-05-14T01:48:11.688Z,86.75
2019-05-14T01:51:15.315Z,86.73
2019-05-14T01:54:20.852Z,86.74
2019-05-14T01:57:24.821Z,86.79
2019-05-14T02:00:31.265Z,86.99
2019-05-14T02:03:34.484Z,87.12
2019-05-14T02:06:38.384Z,87.20
2019-05-14T02:09:42.280Z,87.24
2019-05-14T02:12:46.278Z,87.24
2019-05-14T02:15:52.004Z,87.24
2019-05-14T02:18:55.792Z,87.25
2019-05-14T02:22:01.866Z,87.27
2019-05-14T02:25:05.866Z,87.45
2019-05-14T02:28:11.594Z,87.55
2019-05-14T02:31:15.386Z,87.64
2019-05-14T02:34:19.978Z,87.65
2019-05-14T02:37:24.009Z,87.71
2019-05-14T02:40:29.480Z,87.73
2019-05-14T02:43:33.708Z,87.73
2019-05-14T02:46:40.493Z,87.71
2019-05-14T02:49:43.189Z,87.82
2019-05-14T02:52:49.713Z,87.73
2019-05-14T02:55:52.640Z,87.82
2019-05-14T02:58:59.757Z,87.90
2019-05-14T03:02:02.099Z,87.97
2019-05-14T03:05:09.533Z,88.12
2019-05-14T03:08:12.080Z,88.22
2019-05-14T03:11:16.024Z,88.28
2019-05-14T03:14:19.952Z,88.22
2019-05-14T03:17:23.735Z,88.09
2019-05-14T03:20:28.924Z,88.01
2019-05-14T03:23:33.248Z,87.79
2019-05-14T03:26:39.884Z,87.58
2019-05-14T03:29:42.824Z,86.67
2019-05-14T03:32:52.180Z,87.05
2019-05-14T03:36:01.442Z,87.24
2019-05-14T03:38:59.389Z,87.13
2019-05-14T03:42:03.652Z,87.04
2019-05-14T03:45:08.619Z,87.18
2019-05-14T03:48:12.698Z,87.38
2019-05-14T03:51:16.588Z,87.56
2019-05-14T03:54:20.481Z,87.58
2019-05-14T03:57:24.385Z,87.20
2019-05-14T04:00:50.561Z,87.51
2019-05-14T04:03:54.829Z,87.58
2019-05-14T04:07:01.447Z,87.64
2019-05-14T04:10:10.043Z,87.65
2019-05-14T04:13:14.683Z,87.83
2019-05-14T04:16:21.990Z,88.00
2019-05-14T04:19:29.562Z,87.77
2019-05-14T04:22:34.178Z,87.12
2019-05-14T04:29:30.656Z,86.70
2019-05-14T04:32:33.233Z,86.74
2019-05-14T04:35:40.116Z,86.80
2019-05-14T04:38:43.465Z,87.01
2019-05-14T04:41:49.781Z,87.11
2019-05-14T04:44:53.464Z,86.90
2019-05-14T04:48:00.521Z,86.46
2019-05-14T04:51:04.467Z,85.80
2019-05-14T04:54:09.818Z,85.52
2019-05-14T04:57:13.883Z,85.00
2019-05-14T05:00:19.851Z,85.47
2019-05-14T05:03:23.453Z,85.52
2019-05-14T05:06:29.169Z,85.03
2019-05-14T05:09:32.950Z,84.59
2019-05-14T05:12:38.772Z,84.47
2019-05-14T05:15:42.365Z,84.59
2019-05-14T05:18:49.176Z,83.15
2019-05-14T05:21:51.970Z,83.35
2019-05-14T05:24:55.838Z,82.76
2019-05-14T05:27:59.990Z,82.66
2019-05-14T05:31:04.093Z,82.44
2019-05-14T05:34:08.959Z,81.35
2019-05-14T05:37:13.088Z,80.30
2019-05-14T05:40:19.708Z,80.40
2019-05-14T05:43:22.924Z,80.76
2019-05-14T05:46:28.534Z,81.03
2019-05-14T05:49:32.547Z,79.57
2019-05-14T05:52:38.690Z,78.93
2019-05-14T05:55:42.124Z,78.93
2019-05-14T05:58:48.598Z,79.00
2019-05-14T06:01:54.291Z,79.03
2019-05-14T06:04:58.638Z,78.44
2019-05-14T06:08:02.893Z,78.01
2019-05-14T06:11:08.396Z,77.16
2019-05-14T06:14:12.582Z,77.21
2019-05-14T06:17:18.899Z,77.14
2019-05-14T06:20:22.154Z,76.81
2019-05-14T06:23:28.544Z,77.10
2019-05-14T06:26:31.801Z,76.98
2019-05-14T06:29:38.124Z,77.13
2019-05-14T06:32:41.312Z,77.37
2019-05-14T06:35:45.211Z,75.96
2019-05-14T06:38:49.715Z,76.84
2019-05-14T06:41:54.114Z,77.65
2019-05-14T06:44:58.613Z,76.53
2019-05-14T06:48:02.713Z,75.27
2019-05-14T06:51:08.879Z,75.89
2019-05-14T06:54:12.209Z,75.57
2019-05-14T06:57:18.072Z,73.78
2019-05-14T07:00:22.650Z,74.13
2019-05-14T07:03:28.124Z,72.67
2019-05-14T07:06:32.208Z,72.41
2019-05-14T07:09:38.220Z,73.33
2019-05-14T07:12:42.076Z,73.47
2019-05-14T07:15:45.889Z,69.97
2019-05-14T07:18:53.894Z,70.56
2019-05-14T07:21:58.109Z,71.19
2019-05-14T07:25:01.140Z,70.85
2019-05-14T07:28:05.104Z,70.13
2019-05-14T07:31:09.900Z,70.64
2019-05-14T07:34:13.825Z,70.61
2019-05-14T07:37:18.191Z,68.52
2019-05-14T07:40:22.170Z,67.17
2019-05-14T07:43:28.425Z,65.97
2019-05-14T07:46:31.783Z,66.68
2019-05-14T07:49:35.594Z,64.69
2019-05-14T07:52:45.271Z,63.86
2019-05-14T07:55:45.081Z,63.24
2019-05-14T07:58:49.373Z,63.26
2019-05-14T08:01:54.317Z,61.85
2019-05-14T08:04:58.258Z,62.58
2019-05-14T08:08:02.112Z,59.68
2019-05-14T08:11:08.413Z,58.05
2019-05-14T08:14:11.700Z,58.36
2019-05-14T08:17:15.689Z,56.33
2019-05-14T08:20:19.652Z,55.96
2019-05-14T08:23:23.545Z,55.94
2019-05-14T08:26:29.303Z,54.72
2019-05-14T08:29:33.112Z,52.13
2019-05-14T08:32:39.012Z,51.77
2019-05-14T08:35:42.735Z,52.18
2019-05-14T08:38:49.632Z,49.80
2019-05-14T08:41:59.598Z,50.08
2019-05-14T08:44:59.269Z,51.97
2019-05-14T08:48:03.429Z,47.98
2019-05-14T08:51:09.077Z,48.18
2019-05-14T08:54:12.915Z,48.34
2019-05-14T08:57:18.976Z,48.00
2019-05-14T09:00:22.468Z,49.13
2019-05-14T09:03:28.843Z,48.27
2019-05-14T09:06:32.005Z,50.61
2019-05-14T09:09:38.063Z,50.66
2019-05-14T09:12:41.463Z,50.56
2019-05-14T09:15:45.333Z,49.48
2019-05-14T09:18:49.458Z,48.67
2019-05-14T09:21:53.365Z,50.20
2019-05-14T09:24:59.879Z,49.35
2019-05-14T09:28:02.830Z,46.93
2019-05-14T09:31:08.413Z,46.68
2019-05-14T09:34:12.548Z,46.38
2019-05-14T09:37:19.233Z,47.81
2019-05-14T09:40:22.140Z,48.82
2019-05-14T09:43:28.454Z,44.70
2019-05-14T09:46:31.611Z,44.22
2019-05-14T09:49:35.541Z,42.01
2019-05-14T09:52:39.381Z,43.81
2019-05-14T09:55:43.255Z,44.20
2019-05-14T09:58:49.594Z,46.20
2019-05-14T10:01:52.700Z,44.43
2019-05-14T10:04:59.539Z,41.42
2019-05-14T10:08:02.129Z,39.72
2019-05-14T10:11:06.019Z,41.13
2019-05-14T10:14:09.916Z,40.35
2019-05-14T10:17:13.723Z,38.81
2019-05-14T10:20:35.539Z,39.65
2019-05-14T10:23:23.468Z,40.23
2019-05-14T10:26:28.887Z,41.30
2019-05-14T10:29:33.066Z,41.15
2019-05-14T10:32:40.620Z,40.49
2019-05-14T10:35:42.590Z,41.04
2019-05-14T10:38:46.481Z,40.85
2019-05-14T10:41:50.450Z,39.70
2019-05-14T10:44:54.339Z,39.65
2019-05-14T10:47:58.673Z,40.59
2019-05-14T10:51:03.681Z,38.67
2019-05-14T10:54:21.233Z,38.57
2019-05-14T10:57:13.496Z,40.25
2019-05-14T11:00:19.358Z,40.19
2019-05-14T11:03:23.170Z,39.82
2019-05-14T11:06:29.318Z,39.56
2019-05-14T11:09:32.608Z,40.61
2019-05-14T11:12:39.260Z,38.26
2019-05-14T11:15:42.177Z,39.09
2019-05-14T11:18:49.324Z,41.24
2019-05-14T11:21:51.695Z,39.41
2019-05-14T11:24:55.603Z,40.37
2019-05-14T11:27:59.434Z,40.08
2019-05-14T11:31:03.256Z,37.10
2019-05-14T11:34:08.251Z,37.97
2019-05-14T11:37:12.358Z,35.21
2019-05-14T11:40:18.924Z,36.01
2019-05-14T11:43:22.972Z,39.41
2019-05-14T11:46:40.934Z,38.51
2019-05-14T11:49:32.567Z,36.45
2019-05-14T11:52:38.687Z,39.57
2019-05-14T11:55:42.005Z,36.77
2019-05-14T11:58:45.976Z,36.41
2019-05-14T12:01:49.796Z,37.15
2019-05-14T12:04:53.690Z,39.50
2019-05-14T12:07:57.553Z,37.67
2019-05-14T12:11:01.482Z,36.67
2019-05-14T12:14:05.443Z,36.19
2019-05-14T12:17:09.723Z,36.36
2019-05-14T12:20:14.050Z,35.89
2019-05-14T12:23:19.174Z,37.71
2019-05-14T12:26:23.269Z,34.47
2019-05-14T12:29:29.124Z,34.15
2019-05-14T12:32:32.847Z,34.81
2019-05-14T12:35:39.960Z,33.89
2019-05-14T12:38:42.301Z,37.29
2019-05-14T12:41:46.130Z,37.02
2019-05-14T12:44:50.037Z,36.54
2019-05-14T12:47:53.900Z,35.07
2019-05-14T12:50:59.513Z,38.21
2019-05-14T12:54:03.592Z,34.12
2019-05-14T12:57:07.481Z,33.91
2019-05-14T13:00:11.710Z,33.57
2019-05-14T13:03:15.538Z,34.21
2019-05-14T13:06:19.487Z,33.83
2019-05-14T13:09:23.315Z,34.08
2019-05-14T13:12:29.574Z,36.47
2019-05-14T13:15:32.679Z,36.07
2019-05-14T13:18:38.740Z,34.81
2019-05-14T13:21:42.139Z,35.49
2019-05-14T13:24:46.067Z,36.01
2019-05-14T13:27:49.964Z,35.49
2019-05-14T13:30:53.795Z,33.47
2019-05-14T13:33:59.457Z,36.57
2019-05-14T13:37:03.228Z,35.20
2019-05-14T13:40:09.276Z,34.11
2019-05-14T13:43:14.548Z,35.24
2019-05-14T13:46:19.083Z,36.19
2019-05-14T13:49:23.109Z,36.51
2019-05-14T13:52:29.302Z,33.68
2019-05-14T13:55:32.696Z,35.10
2019-05-14T13:58:37.086Z,34.18
2019-05-14T14:01:41.156Z,33.93
2019-05-14T14:04:45.047Z,33.18
2019-05-14T14:07:48.938Z,33.38
2019-05-14T14:10:54.174Z,33.89
2019-05-14T14:13:58.631Z,34.05
2019-05-14T14:17:02.537Z,35.14
2019-05-14T14:20:08.299Z,34.68
2019-05-14T14:23:21.863Z,35.23
2019-05-14T14:26:18.528Z,35.69
2019-05-14T14:29:22.531Z,36.51
2019-05-14T14:32:26.418Z,33.62
2019-05-14T14:35:30.612Z,32.15
2019-05-14T14:38:34.463Z,34.46
2019-05-14T14:41:38.578Z,35.04
2019-05-14T14:44:42.674Z,36.96
2019-05-14T14:47:49.524Z,36.65
2019-05-14T14:50:52.215Z,35.82
2019-05-14T14:54:02.681Z,34.60
2019-05-14T14:57:01.827Z,34.03
2019-05-14T15:00:09.216Z,35.59
2019-05-14T15:03:11.675Z,34.12
2019-05-14T15:06:15.517Z,33.03
2019-05-14T15:09:19.397Z,33.07
2019-05-14T15:12:23.346Z,33.48
2019-05-14T15:15:27.247Z,33.65
2019-05-14T15:18:31.155Z,32.33
2019-05-14T15:21:34.993Z,32.81
2019-05-14T15:24:38.819Z,33.85
2019-05-14T15:27:42.664Z,32.34
2019-05-14T15:30:49.640Z,32.92
2019-05-14T15:33:52.156Z,32.95
2019-05-14T15:36:59.569Z,33.17
2019-05-14T15:40:03.971Z,34.53
2019-05-14T15:43:09.827Z,34.16
2019-05-14T15:46:12.778Z,34.62
2019-05-14T15:49:18.988Z,34.45
2019-05-14T15:52:22.283Z,34.50
2019-05-14T15:55:26.226Z,33.86
2019-05-14T15:58:30.437Z,33.10
2019-05-14T16:01:34.453Z,33.15
2019-05-14T16:04:38.959Z,32.84
2019-05-14T16:07:43.007Z,32.76
2019-05-14T16:10:46.928Z,32.59
2019-05-14T16:13:50.868Z,33.76
2019-05-14T16:16:54.659Z,34.69
2019-05-14T16:19:58.499Z,34.17
2019-05-14T16:23:02.374Z,34.84
2019-05-14T16:26:08.657Z,34.75
2019-05-14T16:29:11.985Z,37.97
2019-05-14T16:32:15.910Z,38.50
2019-05-14T16:35:21.212Z,39.44
2019-05-14T16:38:25.342Z,40.44
2019-05-14T16:41:29.202Z,39.53
2019-05-14T16:44:33.026Z,41.94
2019-05-14T16:47:39.499Z,42.32
2019-05-14T16:50:42.556Z,43.75
2019-05-14T16:53:48.613Z,42.26
2019-05-14T16:56:51.997Z,44.94
2019-05-14T16:59:58.454Z,45.04
2019-05-14T17:03:01.394Z,45.34
2019-05-14T17:06:05.426Z,45.36
2019-05-14T17:09:09.381Z,43.78
2019-05-14T17:12:13.357Z,43.82
2019-05-14T17:15:18.155Z,44.38
2019-05-14T17:18:22.161Z,44.63
2019-05-14T17:21:26.081Z,45.55
2019-05-14T17:24:29.999Z,46.62
2019-05-14T17:27:33.888Z,45.44
2019-05-14T17:30:38.575Z,44.25
2019-05-14T17:33:42.749Z,42.82
2019-05-14T17:36:48.326Z,42.77
2019-05-14T17:39:52.304Z,42.56
2019-05-14T17:42:56.130Z,43.27
2019-05-14T17:46:00.043Z,43.70
2019-05-14T17:49:04.125Z,44.26
2019-05-14T17:52:08.018Z,44.50
2019-05-14T17:55:12.574Z,44.49
2019-05-14T17:58:18.897Z,44.24
2019-05-14T18:01:23.009Z,44.48
2019-05-14T18:04:28.406Z,44.27
2019-05-14T18:07:32.421Z,44.93
2019-05-14T18:10:39.009Z,44.97
2019-05-14T18:13:41.858Z,45.46
2019-05-14T18:16:45.777Z,44.68
2019-05-14T18:19:49.579Z,45.25
2019-05-14T18:22:53.416Z,45.49
2019-05-14T18:26:07.186Z,45.52
2019-05-14T18:29:04.609Z,45.98
2019-05-14T18:32:09.081Z,46.33
2019-05-14T18:35:13.319Z,46.55
2019-05-14T18:38:19.410Z,46.81
2019-05-14T18:41:22.771Z,49.08
2019-05-14T18:44:28.499Z,50.32
2019-05-14T18:47:32.298Z,50.28
2019-05-14T18:50:36.185Z,50.99
2019-05-14T18:53:40.112Z,51.71
2019-05-14T18:56:44.002Z,51.94
2019-05-14T18:59:49.269Z,51.83
2019-05-14T19:02:53.348Z,52.16
2019-05-14T19:05:58.643Z,52.86
2019-05-14T19:09:02.722Z,53.41
2019-05-14T19:12:08.282Z,53.95
2019-05-14T19:15:12.650Z,54.70
2019-05-14T19:18:19.055Z,55.16
2019-05-14T19:21:22.093Z,55.86
2019-05-14T19:24:28.500Z,56.63
2019-05-14T19:27:32.015Z,57.37
2019-05-14T19:30:38.065Z,57.23
2019-05-14T19:33:41.795Z,57.72
2019-05-14T19:36:47.945Z,58.22
2019-05-14T19:39:52.754Z,58.56
2019-05-14T19:42:58.292Z,58.98
2019-05-14T19:46:09.641Z,59.45
2019-05-14T19:49:14.571Z,59.70
2019-05-14T19:52:18.898Z,60.04
2019-05-14T19:55:23.268Z,60.32
2019-05-14T19:58:29.296Z,60.97
2019-05-14T20:01:33.473Z,61.39
2019-05-14T20:04:37.738Z,61.70
2019-05-14T20:07:42.197Z,62.08
2019-05-14T20:10:48.769Z,62.48
2019-05-14T20:13:52.219Z,62.80
2019-05-14T20:16:58.937Z,63.22
2019-05-14T20:20:03.228Z,63.34
2019-05-14T20:23:10.443Z,63.96
2019-05-14T20:26:14.284Z,64.40
2019-05-14T20:29:23.046Z,64.89
2019-05-14T20:32:27.000Z,65.29
2019-05-14T20:35:34.841Z,65.98
2019-05-14T20:38:38.834Z,65.96
2019-05-14T20:42:18.974Z,66.05
2019-05-14T20:45:28.658Z,66.21
2019-05-14T20:55:09.185Z,67.31
2019-05-14T20:58:12.857Z,67.50
2019-05-14T21:01:18.391Z,67.85
2019-05-14T21:04:22.562Z,67.98
2019-05-14T21:07:28.878Z,68.24
2019-05-14T21:10:32.718Z,68.72
2019-05-14T21:13:36.911Z,69.17
2019-05-14T21:16:41.347Z,69.65
2019-05-14T21:19:50.007Z,70.01
2019-05-14T21:23:12.298Z,70.57
2019-05-14T21:26:16.249Z,70.67
2019-05-14T21:29:20.141Z,70.59
2019-05-14T21:32:24.062Z,70.85
2019-05-14T21:35:29.130Z,71.24
2019-05-14T21:38:33.254Z,71.65
2019-05-14T21:41:38.744Z,71.89
2019-05-14T21:44:42.990Z,72.90
2019-05-14T21:47:48.219Z,73.19
2019-05-14T21:50:52.252Z,73.76
2019-05-14T21:53:56.135Z,74.41
2019-05-14T21:56:59.971Z,74.33
2019-05-14T22:00:05.451Z,74.09
2019-05-14T22:03:10.364Z,74.38
2019-05-14T22:06:14.634Z,74.48
2019-05-14T22:09:18.555Z,74.04
2019-05-14T22:12:22.515Z,73.30
2019-05-14T22:15:26.385Z,73.14
2019-05-14T22:18:30.369Z,73.46
2019-05-14T22:21:34.236Z,74.01
2019-05-14T22:24:38.457Z,74.33
2019-05-14T22:27:42.448Z,74.46
2019-05-14T22:30:46.282Z,74.58
2019-05-14T22:33:50.159Z,74.83
2019-05-14T22:36:54.086Z,74.92
2019-05-14T22:39:59.017Z,75.00
2019-05-14T22:43:03.081Z,75.49
2019-05-14T22:46:08.470Z,76.10
2019-05-14T22:49:12.359Z,76.55
2019-05-14T22:52:16.170Z,76.78
2019-05-14T22:55:20.001Z,76.49
2019-05-14T22:58:25.886Z,76.13
2019-05-14T23:01:29.509Z,76.10
2019-05-14T23:04:33.313Z,76.00
2019-05-14T23:07:38.383Z,75.83
2019-05-14T23:10:42.506Z,75.79
2019-05-14T23:13:48.558Z,75.82
2019-05-14T23:16:52.012Z,75.97
2019-05-14T23:19:57.933Z,76.50
2019-05-14T23:23:01.584Z,76.79
2019-05-14T23:26:05.467Z,77.15
2019-05-14T23:29:09.287Z,78.01
2019-05-14T23:32:13.966Z,78.13
2019-05-14T23:35:18.762Z,77.86
2019-05-14T23:38:22.917Z,78.25
2019-05-14T23:41:28.668Z,78.51
2019-05-14T23:44:32.712Z,78.29
2019-05-14T23:47:38.378Z,78.31
2019-05-14T23:50:42.504Z,78.36
2019-05-14T23:53:48.312Z,78.60
2019-05-14T23:56:51.977Z,78.90
2019-05-14T23:59:57.900Z,79.10
